createdAt,value
2018-06-08T00:01:59.559Z,45.83
2018-06-08T00:04:26.250Z,45.81
2018-06-08T00:06:52.884Z,45.87
2018-06-08T00:09:19.543Z,45.74
2018-06-08T00:11:46.237Z,45.82
2018-06-08T00:14:12.878Z,45.77
2018-06-08T00:16:39.503Z,45.84
2018-06-08T00:19:06.144Z,45.77
2018-06-08T00:21:32.792Z,45.68
2018-06-08T00:23:59.480Z,45.75
2018-06-08T00:26:26.120Z,45.70
2018-06-08T00:28:52.746Z,45.63
2018-06-08T00:31:20.623Z,45.46
2018-06-08T00:33:46.112Z,45.62
2018-06-08T00:36:12.761Z,45.70
2018-06-08T00:38:39.413Z,45.65
2018-06-08T00:41:06.068Z,45.63
2018-06-08T00:43:32.758Z,45.65
2018-06-08T00:45:59.432Z,45.60
2018-06-08T00:48:26.055Z,45.66
2018-06-08T00:50:55.551Z,45.69
2018-06-08T00:53:22.204Z,45.65
2018-06-08T00:55:48.909Z,45.66
2018-06-08T00:58:15.565Z,45.65
2018-06-08T01:00:42.217Z,45.63
2018-06-08T01:03:08.882Z,45.63
2018-06-08T01:05:35.483Z,45.67
2018-06-08T01:08:02.194Z,45.59
2018-06-08T01:10:28.839Z,45.57
2018-06-08T01:12:55.498Z,45.77
2018-06-08T01:15:22.274Z,45.60
2018-06-08T01:17:48.915Z,45.65
2018-06-08T01:20:15.540Z,45.37
2018-06-08T01:22:42.241Z,45.54
2018-06-08T01:25:08.898Z,45.59
2018-06-08T01:27:35.548Z,45.71
2018-06-08T01:30:02.259Z,45.60
2018-06-08T01:32:28.877Z,45.53
2018-06-08T01:34:55.543Z,45.67
2018-06-08T01:37:22.256Z,45.66
2018-06-08T01:39:48.949Z,45.60
2018-06-08T01:42:15.615Z,45.61
2018-06-08T01:44:42.269Z,45.67
2018-06-08T01:47:08.964Z,45.77
2018-06-08T01:49:35.650Z,45.77
2018-06-08T01:52:02.338Z,45.67
2018-06-08T01:54:28.997Z,45.52
2018-06-08T01:56:55.670Z,45.51
2018-06-08T01:59:22.333Z,45.58
2018-06-08T02:01:48.989Z,45.36
2018-06-08T02:04:15.649Z,45.56
2018-06-08T02:06:42.326Z,45.65
2018-06-08T02:09:08.966Z,45.66
2018-06-08T02:11:35.622Z,45.54
2018-06-08T02:14:02.300Z,45.55
2018-06-08T02:16:28.953Z,45.72
2018-06-08T02:18:55.645Z,45.63
2018-06-08T02:21:22.294Z,45.72
2018-06-08T02:23:48.952Z,45.61
2018-06-08T02:26:15.605Z,45.67
2018-06-08T02:28:42.268Z,45.47
2018-06-08T02:31:08.960Z,45.45
2018-06-08T02:33:35.609Z,45.63
2018-06-08T02:36:02.375Z,45.42
2018-06-08T02:38:29.075Z,45.48
2018-06-08T02:40:55.775Z,45.59
2018-06-08T02:43:22.431Z,45.78
2018-06-08T02:45:49.139Z,45.65
2018-06-08T02:48:15.792Z,45.57
2018-06-08T02:50:42.438Z,45.66
2018-06-08T02:53:09.142Z,45.61
2018-06-08T02:55:35.754Z,45.69
2018-06-08T02:58:02.420Z,45.72
2018-06-08T03:00:29.079Z,45.68
2018-06-08T03:02:55.777Z,45.61
2018-06-08T03:05:22.483Z,45.72
2018-06-08T03:07:49.106Z,45.56
2018-06-08T03:10:15.723Z,45.50
2018-06-08T03:12:42.393Z,45.28
2018-06-08T03:15:09.082Z,45.25
2018-06-08T03:17:35.764Z,45.21
2018-06-08T03:20:02.392Z,45.17
2018-06-08T03:22:30.132Z,45.40
2018-06-08T03:24:56.785Z,45.57
2018-06-08T03:27:26.753Z,45.72
2018-06-08T03:29:53.413Z,45.48
2018-06-08T03:32:20.134Z,45.88
2018-06-08T03:34:46.761Z,45.87
2018-06-08T03:37:13.457Z,45.92
2018-06-08T03:39:40.135Z,45.96
2018-06-08T03:42:06.773Z,45.95
2018-06-08T03:44:33.489Z,45.90
2018-06-08T03:47:00.136Z,45.49
2018-06-08T03:49:29.834Z,45.47
2018-06-08T03:51:56.536Z,45.38
2018-06-08T03:54:23.147Z,45.15
2018-06-08T03:56:49.798Z,44.41
2018-06-08T03:59:16.459Z,44.12
2018-06-08T04:01:43.150Z,43.70
2018-06-08T04:04:09.898Z,43.29
2018-06-08T04:06:36.527Z,43.21
2018-06-08T04:09:03.195Z,42.91
2018-06-08T04:11:29.859Z,42.69
2018-06-08T04:13:56.511Z,43.62
2018-06-08T04:16:23.161Z,43.75
2018-06-08T04:18:49.859Z,44.07
2018-06-08T04:21:16.530Z,44.16
2018-06-08T04:23:43.193Z,44.02
2018-06-08T04:26:09.840Z,44.17
2018-06-08T04:28:36.499Z,44.73
2018-06-08T04:31:03.210Z,43.84
2018-06-08T04:33:29.892Z,43.13
2018-06-08T04:35:56.522Z,42.60
2018-06-08T04:38:24.507Z,43.76
2018-06-08T04:40:49.860Z,43.31
2018-06-08T04:43:16.535Z,42.88
2018-06-08T04:45:43.222Z,42.95
2018-06-08T04:48:09.847Z,43.15
2018-06-08T04:50:36.589Z,42.64
2018-06-08T04:53:03.208Z,42.58
2018-06-08T04:55:29.861Z,41.73
2018-06-08T04:57:56.527Z,42.50
2018-06-08T05:00:23.226Z,42.06
2018-06-08T05:02:49.873Z,41.36
2018-06-08T05:05:16.505Z,40.89
2018-06-08T05:07:43.209Z,41.05
2018-06-08T05:10:09.879Z,41.49
2018-06-08T05:12:36.584Z,40.51
2018-06-08T05:15:03.239Z,40.62
2018-06-08T05:17:29.915Z,41.18
2018-06-08T05:19:56.615Z,42.74
2018-06-08T05:22:23.268Z,42.08
2018-06-08T05:24:49.991Z,42.44
2018-06-08T05:27:16.676Z,42.37
2018-06-08T05:29:43.369Z,41.88
2018-06-08T05:32:10.006Z,42.25
2018-06-08T05:34:36.706Z,42.54
2018-06-08T05:37:03.364Z,42.39
2018-06-08T05:39:30.056Z,42.04
2018-06-08T05:41:56.750Z,42.85
2018-06-08T05:44:23.399Z,42.68
2018-06-08T05:46:50.129Z,42.29
2018-06-08T05:49:16.763Z,42.48
2018-06-08T05:51:43.426Z,41.96
2018-06-08T05:54:10.117Z,41.04
2018-06-08T05:56:36.802Z,41.14
2018-06-08T05:59:03.443Z,40.41
2018-06-08T06:01:31.384Z,40.48
2018-06-08T06:03:56.772Z,40.67
2018-06-08T06:06:23.444Z,40.71
2018-06-08T06:08:50.149Z,40.68
2018-06-08T06:11:16.806Z,40.58
2018-06-08T06:13:43.421Z,40.30
2018-06-08T06:16:10.116Z,40.48
2018-06-08T06:18:36.852Z,40.79
2018-06-08T06:21:03.527Z,40.92
2018-06-08T06:23:30.205Z,41.29
2018-06-08T06:25:56.879Z,41.33
2018-06-08T06:28:23.502Z,41.73
2018-06-08T06:30:50.185Z,41.80
2018-06-08T06:33:16.921Z,41.82
2018-06-08T06:35:43.591Z,41.97
2018-06-08T06:38:10.289Z,41.97
2018-06-08T06:40:36.989Z,41.85
2018-06-08T06:43:03.675Z,41.53
2018-06-08T06:45:30.429Z,41.21
2018-06-08T06:47:57.161Z,41.26
2018-06-08T06:50:23.770Z,41.14
2018-06-08T06:52:50.431Z,41.07
2018-06-08T06:55:17.279Z,41.18
2018-06-08T06:57:43.967Z,41.10
2018-06-08T07:00:10.699Z,41.22
2018-06-08T07:02:37.319Z,41.25
2018-06-08T07:05:03.968Z,41.55
2018-06-08T07:07:30.683Z,41.22
2018-06-08T07:09:57.342Z,41.16
2018-06-08T07:12:24.009Z,41.13
2018-06-08T07:14:50.690Z,41.21
2018-06-08T07:17:17.456Z,41.23
2018-06-08T07:19:45.215Z,41.20
2018-06-08T07:22:11.842Z,41.25
2018-06-08T07:24:38.782Z,41.47
2018-06-08T07:27:05.493Z,41.56
2018-06-08T07:29:32.110Z,41.80
2018-06-08T07:31:58.808Z,41.86
2018-06-08T07:34:25.494Z,42.09
2018-06-08T07:36:52.179Z,42.00
2018-06-08T07:39:18.938Z,42.15
2018-06-08T07:41:46.932Z,42.42
2018-06-08T07:44:12.272Z,42.62
2018-06-08T07:46:38.992Z,42.90
2018-06-08T07:49:05.654Z,42.91
2018-06-08T07:51:35.153Z,42.96
2018-06-08T07:54:01.837Z,43.02
2018-06-08T07:56:28.555Z,43.03
2018-06-08T07:58:56.217Z,43.14
2018-06-08T08:01:22.907Z,43.11
2018-06-08T08:03:49.609Z,43.27
2018-06-08T08:06:16.244Z,43.15
2018-06-08T08:08:42.923Z,43.17
2018-06-08T08:11:09.592Z,43.31
2018-06-08T08:13:36.271Z,43.33
2018-06-08T08:16:02.976Z,43.15
2018-06-08T08:18:29.703Z,43.48
2018-06-08T08:20:56.340Z,43.42
2018-06-08T08:23:25.610Z,42.93
2018-06-08T08:25:52.372Z,43.27
2018-06-08T08:28:19.031Z,43.35
2018-06-08T08:30:45.758Z,43.42
2018-06-08T08:33:12.413Z,43.73
2018-06-08T08:35:39.076Z,43.76
2018-06-08T08:38:05.752Z,43.52
2018-06-08T08:40:32.431Z,43.45
2018-06-08T08:43:02.222Z,43.00
2018-06-08T08:45:28.920Z,43.27
2018-06-08T08:47:55.579Z,43.37
2018-06-08T08:50:22.250Z,43.30
2018-06-08T08:52:48.896Z,43.35
2018-06-08T08:55:15.618Z,43.04
2018-06-08T08:57:42.313Z,43.23
2018-06-08T09:00:08.931Z,43.06
2018-06-08T09:02:35.626Z,43.00
2018-06-08T09:05:02.328Z,42.95
2018-06-08T09:07:28.993Z,42.91
2018-06-08T09:09:55.664Z,42.92
2018-06-08T09:12:22.399Z,42.85
2018-06-08T09:14:49.063Z,42.74
2018-06-08T09:17:15.693Z,42.38
2018-06-08T09:19:42.444Z,42.58
2018-06-08T09:22:09.142Z,42.95
2018-06-08T09:24:35.802Z,42.89
2018-06-08T09:27:02.458Z,42.60
2018-06-08T09:29:29.158Z,42.09
2018-06-08T09:31:55.855Z,43.11
2018-06-08T09:34:22.530Z,42.02
2018-06-08T09:36:49.301Z,41.98
2018-06-08T09:39:15.949Z,42.49
2018-06-08T09:41:42.634Z,42.52
2018-06-08T09:44:09.269Z,42.90
2018-06-08T09:46:35.963Z,43.56
2018-06-08T09:49:02.635Z,43.43
2018-06-08T09:51:29.297Z,42.94
2018-06-08T09:53:56.012Z,42.62
2018-06-08T09:56:22.662Z,42.29
2018-06-08T09:58:51.448Z,42.38
2018-06-08T10:01:18.104Z,42.38
2018-06-08T10:03:44.887Z,43.12
2018-06-08T10:06:11.613Z,43.06
2018-06-08T10:08:38.286Z,42.98
2018-06-08T10:11:04.928Z,43.23
2018-06-08T10:13:31.605Z,43.77
2018-06-08T10:15:58.261Z,43.84
2018-06-08T10:18:24.988Z,44.03
2018-06-08T10:20:53.818Z,43.25
2018-06-08T10:23:20.556Z,43.40
2018-06-08T10:25:47.224Z,42.46
2018-06-08T10:28:13.993Z,42.46
2018-06-08T10:30:40.722Z,42.48
2018-06-08T10:33:07.398Z,43.33
2018-06-08T10:35:34.056Z,43.31
2018-06-08T10:38:00.759Z,43.98
2018-06-08T10:40:27.441Z,44.15
2018-06-08T10:42:54.075Z,43.37
2018-06-08T10:45:20.794Z,43.10
2018-06-08T10:47:47.461Z,43.22
2018-06-08T10:50:14.126Z,44.22
2018-06-08T10:52:40.900Z,44.60
2018-06-08T10:55:07.598Z,44.47
2018-06-08T10:57:34.246Z,45.13
2018-06-08T11:00:00.911Z,44.54
2018-06-08T11:02:27.523Z,43.56
2018-06-08T11:04:54.212Z,43.71
2018-06-08T11:07:20.861Z,44.93
2018-06-08T11:09:47.701Z,46.05
2018-06-08T11:12:14.347Z,45.60
2018-06-08T11:14:40.991Z,44.28
2018-06-08T11:17:07.737Z,43.92
2018-06-08T11:19:34.493Z,44.13
2018-06-08T11:22:01.164Z,45.06
2018-06-08T11:24:27.825Z,45.43
2018-06-08T11:26:54.582Z,45.83
2018-06-08T11:29:21.245Z,45.04
2018-06-08T11:31:47.901Z,43.93
2018-06-08T11:34:14.555Z,44.15
2018-06-08T11:36:41.253Z,44.49
2018-06-08T11:39:07.962Z,44.39
2018-06-08T11:41:34.615Z,44.43
2018-06-08T11:44:01.284Z,44.59
2018-06-08T11:46:27.935Z,44.56
2018-06-08T11:48:54.632Z,44.51
2018-06-08T11:51:21.307Z,44.29
2018-06-08T11:53:47.998Z,44.21
2018-06-08T11:56:14.690Z,44.08
2018-06-08T11:58:41.407Z,43.98
2018-06-08T12:01:08.025Z,43.87
2018-06-08T12:03:34.695Z,44.15
2018-06-08T12:06:01.351Z,44.38
2018-06-08T12:08:28.708Z,44.78
2018-06-08T12:10:55.320Z,44.77
2018-06-08T12:13:22.054Z,45.12
2018-06-08T12:15:48.704Z,45.33
2018-06-08T12:18:15.360Z,45.28
2018-06-08T12:20:44.846Z,45.77
2018-06-08T12:23:16.138Z,45.80
2018-06-08T12:25:44.238Z,46.82
2018-06-08T12:28:09.529Z,47.20
2018-06-08T12:30:36.310Z,47.54
2018-06-08T12:33:02.996Z,46.66
2018-06-08T12:35:29.700Z,46.67
2018-06-08T12:37:56.375Z,45.04
2018-06-08T12:40:23.024Z,45.22
2018-06-08T12:42:49.699Z,44.80
2018-06-08T12:45:16.370Z,45.64
2018-06-08T12:47:43.055Z,45.75
2018-06-08T12:50:09.710Z,46.05
2018-06-08T12:52:36.443Z,46.07
2018-06-08T12:55:03.208Z,46.23
2018-06-08T12:57:29.935Z,46.47
2018-06-08T12:59:56.580Z,46.53
2018-06-08T13:02:25.642Z,46.09
2018-06-08T13:04:52.339Z,46.11
2018-06-08T13:07:19.129Z,45.91
2018-06-08T13:09:45.802Z,46.04
2018-06-08T13:12:12.449Z,45.74
2018-06-08T13:14:39.154Z,45.38
2018-06-08T13:17:05.888Z,45.59
2018-06-08T13:19:32.635Z,45.23
2018-06-08T13:22:01.418Z,44.99
2018-06-08T13:24:28.122Z,44.76
2018-06-08T13:26:54.935Z,44.71
2018-06-08T13:29:21.613Z,44.73
2018-06-08T13:31:48.278Z,44.52
2018-06-08T13:34:14.980Z,44.50
2018-06-08T13:36:41.689Z,44.41
2018-06-08T13:39:09.405Z,44.59
2018-06-08T13:41:36.112Z,44.43
2018-06-08T13:44:02.807Z,44.35
2018-06-08T13:46:29.543Z,44.21
2018-06-08T13:48:56.210Z,43.90
2018-06-08T13:51:22.829Z,43.82
2018-06-08T13:53:49.561Z,43.63
2018-06-08T13:56:16.228Z,43.61
2018-06-08T13:58:43.067Z,43.18
2018-06-08T14:01:09.678Z,43.57
2018-06-08T14:03:36.372Z,43.38
2018-06-08T14:06:03.051Z,43.34
2018-06-08T14:08:29.712Z,43.18
2018-06-08T14:10:56.360Z,43.14
2018-06-08T14:13:23.048Z,43.32
2018-06-08T14:15:49.781Z,42.91
2018-06-08T14:18:16.391Z,42.61
2018-06-08T14:20:43.117Z,43.14
2018-06-08T14:23:09.784Z,42.94
2018-06-08T14:25:36.442Z,43.00
2018-06-08T14:28:03.123Z,42.65
2018-06-08T14:30:30.147Z,42.51
2018-06-08T14:32:56.850Z,42.45
2018-06-08T14:35:23.472Z,42.28
2018-06-08T14:37:50.165Z,42.26
2018-06-08T14:40:16.921Z,42.50
2018-06-08T14:42:43.605Z,43.20
2018-06-08T14:45:10.285Z,43.21
2018-06-08T14:47:37.017Z,42.37
2018-06-08T14:50:03.684Z,42.18
2018-06-08T14:52:30.563Z,42.06
2018-06-08T14:54:57.258Z,41.86
2018-06-08T14:57:23.922Z,42.33
2018-06-08T14:59:50.575Z,42.46
2018-06-08T15:02:17.306Z,42.16
2018-06-08T15:04:43.992Z,42.29
2018-06-08T15:07:10.656Z,42.46
2018-06-08T15:09:37.308Z,42.64
2018-06-08T15:12:03.972Z,41.88
2018-06-08T15:14:30.634Z,41.53
2018-06-08T15:16:57.285Z,41.27
2018-06-08T15:19:23.995Z,41.04
2018-06-08T15:21:50.645Z,40.66
2018-06-08T15:24:17.392Z,40.76
2018-06-08T15:26:44.091Z,40.76
2018-06-08T15:29:10.738Z,40.34
2018-06-08T15:31:37.383Z,40.00
2018-06-08T15:34:04.048Z,40.06
2018-06-08T15:36:30.744Z,39.92
2018-06-08T15:38:57.388Z,39.79
2018-06-08T15:41:24.062Z,39.80
2018-06-08T15:43:50.666Z,39.61
2018-06-08T15:46:17.398Z,39.59
2018-06-08T15:48:44.105Z,39.52
2018-06-08T15:51:10.711Z,39.38
2018-06-08T15:53:37.380Z,39.49
2018-06-08T15:56:04.017Z,39.42
2018-06-08T15:58:30.736Z,39.20
2018-06-08T16:00:57.448Z,39.16
2018-06-08T16:03:24.050Z,39.18
2018-06-08T16:05:50.740Z,39.07
2018-06-08T16:08:17.408Z,38.86
2018-06-08T16:10:44.063Z,39.19
2018-06-08T16:13:10.760Z,38.86
2018-06-08T16:15:37.487Z,38.96
2018-06-08T16:18:04.179Z,39.02
2018-06-08T16:20:30.827Z,38.87
2018-06-08T16:22:57.557Z,38.77
2018-06-08T16:25:24.176Z,38.85
2018-06-08T16:27:50.900Z,38.94
2018-06-08T16:30:17.594Z,38.84
2018-06-08T16:32:44.239Z,38.79
2018-06-08T16:35:11.041Z,38.96
2018-06-08T16:37:37.682Z,38.81
2018-06-08T16:40:04.336Z,38.65
2018-06-08T16:42:31.095Z,38.56
2018-06-08T16:44:57.752Z,38.50
2018-06-08T16:47:24.439Z,38.56
2018-06-08T16:49:51.083Z,38.62
2018-06-08T16:52:17.776Z,38.29
2018-06-08T16:54:44.455Z,38.28
2018-06-08T16:57:11.198Z,38.19
2018-06-08T16:59:37.828Z,38.12
2018-06-08T17:02:04.500Z,38.28
2018-06-08T17:04:31.197Z,38.28
2018-06-08T17:06:57.809Z,37.98
2018-06-08T17:09:24.498Z,37.93
2018-06-08T17:11:51.147Z,37.67
2018-06-08T17:14:17.836Z,38.03
2018-06-08T17:16:44.517Z,37.69
2018-06-08T17:19:11.201Z,37.63
2018-06-08T17:21:37.884Z,37.64
2018-06-08T17:24:04.542Z,37.79
2018-06-08T17:26:31.192Z,37.70
2018-06-08T17:28:57.934Z,37.50
2018-06-08T17:31:24.555Z,37.65
2018-06-08T17:33:51.231Z,38.00
2018-06-08T17:36:17.847Z,40.01
2018-06-08T17:38:44.500Z,38.98
2018-06-08T17:41:11.232Z,38.96
2018-06-08T17:43:38.013Z,38.63
2018-06-08T17:46:04.664Z,38.49
2018-06-08T17:48:31.305Z,38.60
2018-06-08T17:50:57.934Z,38.41
2018-06-08T17:53:24.631Z,38.21
2018-06-08T17:55:51.326Z,38.13
2018-06-08T17:58:17.966Z,37.99
2018-06-08T18:00:44.866Z,37.98
2018-06-08T18:03:11.489Z,37.76
2018-06-08T18:05:38.140Z,37.73
2018-06-08T18:08:04.799Z,37.86
2018-06-08T18:10:31.513Z,38.29
2018-06-08T18:12:58.193Z,38.58
2018-06-08T18:15:24.877Z,39.35
2018-06-08T18:17:51.623Z,38.93
2018-06-08T18:20:19.315Z,38.79
2018-06-08T18:22:45.971Z,38.75
2018-06-08T18:25:12.685Z,38.95
2018-06-08T18:27:39.340Z,38.70
2018-06-08T18:30:06.033Z,38.52
2018-06-08T18:32:32.694Z,38.48
2018-06-08T18:34:59.387Z,38.34
2018-06-08T18:37:26.093Z,38.28
2018-06-08T18:39:52.896Z,38.31
2018-06-08T18:42:19.516Z,38.56
2018-06-08T18:44:46.185Z,39.17
2018-06-08T18:47:12.938Z,40.84
2018-06-08T18:49:39.624Z,39.71
2018-06-08T18:52:06.282Z,39.54
2018-06-08T18:54:32.980Z,39.34
2018-06-08T18:56:59.725Z,39.26
2018-06-08T18:59:26.334Z,39.07
2018-06-08T19:01:53.103Z,38.92
2018-06-08T19:04:19.784Z,38.77
2018-06-08T19:06:46.442Z,38.74
2018-06-08T19:09:13.126Z,38.59
2018-06-08T19:11:39.751Z,38.59
2018-06-08T19:14:06.443Z,38.41
2018-06-08T19:16:33.130Z,38.49
2018-06-08T19:18:59.783Z,39.19
2018-06-08T19:21:26.449Z,40.50
2018-06-08T19:23:53.194Z,40.97
2018-06-08T19:26:19.902Z,40.92
2018-06-08T19:28:46.530Z,40.91
2018-06-08T19:31:13.206Z,40.32
2018-06-08T19:33:39.884Z,40.31
2018-06-08T19:36:06.505Z,40.28
2018-06-08T19:38:33.250Z,39.93
2018-06-08T19:40:59.961Z,39.88
2018-06-08T19:43:26.655Z,39.87
2018-06-08T19:45:53.363Z,39.62
2018-06-08T19:48:20.023Z,40.17
2018-06-08T19:50:46.728Z,41.46
2018-06-08T19:53:13.381Z,41.75
2018-06-08T19:55:40.055Z,41.87
2018-06-08T19:58:06.696Z,42.02
2018-06-08T20:00:33.361Z,42.12
2018-06-08T20:03:00.033Z,41.23
2018-06-08T20:05:26.691Z,41.05
2018-06-08T20:07:53.352Z,40.96
2018-06-08T20:10:19.997Z,40.66
2018-06-08T20:12:46.659Z,40.57
2018-06-08T20:15:13.304Z,40.27
2018-06-08T20:17:39.969Z,40.34
2018-06-08T20:20:06.653Z,41.57
2018-06-08T20:22:33.312Z,42.26
2018-06-08T20:24:59.938Z,42.46
2018-06-08T20:27:26.584Z,42.33
2018-06-08T20:29:53.254Z,42.21
2018-06-08T20:32:19.891Z,42.83
2018-06-08T20:34:46.604Z,41.81
2018-06-08T20:37:13.266Z,41.51
2018-06-08T20:39:40.057Z,41.35
2018-06-08T20:42:06.688Z,41.09
2018-06-08T20:44:33.452Z,40.73
2018-06-08T20:47:08.496Z,40.67
2018-06-08T20:49:43.277Z,40.32
2018-06-08T20:52:10.104Z,40.16
2018-06-08T20:54:36.756Z,39.99
2018-06-08T20:57:03.840Z,39.71
2018-06-08T20:59:30.889Z,39.65
2018-06-08T21:01:58.488Z,39.41
2018-06-08T21:04:28.338Z,39.22
2018-06-08T21:06:57.492Z,39.10
2018-06-08T21:09:24.603Z,38.93
2018-06-08T21:11:52.215Z,38.78
2018-06-08T21:17:05.701Z,38.59
2018-06-08T21:19:33.273Z,38.38
2018-06-08T21:21:59.967Z,38.50
2018-06-08T21:24:26.608Z,39.97
2018-06-08T21:26:53.312Z,40.56
2018-06-08T21:29:19.985Z,40.79
2018-06-08T21:31:46.813Z,40.98
2018-06-08T21:34:13.850Z,40.53
2018-06-08T21:36:40.501Z,40.20
2018-06-08T21:39:08.269Z,41.10
2018-06-08T21:41:35.327Z,40.90
2018-06-08T21:44:01.913Z,41.44
2018-06-08T21:46:28.611Z,43.00
2018-06-08T21:48:55.556Z,43.09
2018-06-08T21:51:22.634Z,43.27
2018-06-08T21:53:49.288Z,43.50
2018-06-08T21:56:15.972Z,43.02
2018-06-08T21:58:42.670Z,43.07
2018-06-08T22:01:09.360Z,42.94
2018-06-08T22:03:36.063Z,43.11
2018-06-08T22:06:02.736Z,43.16
2018-06-08T22:08:29.421Z,43.15
2018-06-08T22:10:56.108Z,43.29
2018-06-08T22:13:22.838Z,43.18
2018-06-08T22:15:49.488Z,43.32
2018-06-08T22:18:16.209Z,43.29
2018-06-08T22:20:42.855Z,43.42
2018-06-08T22:23:09.589Z,43.43
2018-06-08T22:25:36.277Z,43.32
2018-06-08T22:28:02.930Z,43.39
2018-06-08T22:30:29.620Z,43.59
2018-06-08T22:32:56.360Z,43.66
2018-06-08T22:35:22.996Z,43.71
2018-06-08T22:37:49.690Z,43.72
2018-06-08T22:40:16.453Z,43.60
2018-06-08T22:42:43.152Z,43.68
2018-06-08T22:45:09.848Z,43.73
2018-06-08T22:47:36.554Z,43.79
2018-06-08T22:50:03.248Z,43.88
2018-06-08T22:52:30.057Z,43.77
2018-06-08T22:54:56.736Z,43.00
2018-06-08T22:57:23.419Z,42.82
2018-06-08T22:59:50.105Z,42.75
2018-06-08T23:02:16.902Z,42.48
2018-06-08T23:04:43.621Z,42.19
2018-06-08T23:07:10.345Z,42.02
2018-06-08T23:09:37.040Z,41.75
2018-06-08T23:12:03.690Z,41.50
2018-06-08T23:14:30.382Z,41.19
2018-06-08T23:16:57.072Z,41.00
2018-06-08T23:19:23.764Z,40.80
2018-06-08T23:21:50.444Z,40.55
2018-06-08T23:24:17.164Z,40.44
2018-06-08T23:26:43.845Z,40.42
2018-06-08T23:29:10.624Z,40.22
2018-06-08T23:31:37.253Z,40.11
2018-06-08T23:34:03.936Z,40.25
2018-06-08T23:36:30.653Z,41.98
2018-06-08T23:38:57.305Z,42.60
2018-06-08T23:41:23.993Z,42.93
2018-06-08T23:43:50.711Z,42.61
2018-06-08T23:46:17.379Z,42.32
2018-06-08T23:48:44.065Z,41.84
2018-06-08T23:51:10.760Z,41.71
2018-06-08T23:53:37.467Z,41.49
2018-06-08T23:56:04.190Z,41.48
2018-06-08T23:58:30.842Z,41.02
